Pagrindinis puslapis
METAR-TAF:

METAR-TAF

Oro uostai :

Vandenberg Airport

Tampa, Florida, Jungtinės Amerikos Valstijos

platuma: 28-00-50N, ilguma: 082-20-43W, Aukštis: 7 m

Dabartinis oras

Ataskaita buvo paskelbta 21 minutes, ne 07:55 UTC
Vėjas 5 kt iš Šiaurės Vakarų
Temperatūra 13°C
Drėgmė 94%
Slėgis 1018 hPa
Matomumas: 16.1 km
Išsisklaidę debesys ne aukštis 5500 ft
Išsisklaidę debesys ne aukštis 7000 ft
Su prošvaistėmis ne aukštis 11000 ft
lietus

METAR: KVDF 270755Z AUTO 32005KT 10SM -RA SCT055 SCT070 BKN110 13/12 A3006 RMK AO2

Laikas: 03:16 (08:16 UTC)


TAF: trūkstamas

Orai ataskaitas ir orų prognozės (METAR, TAF).

turimą stotys yra geltonos ir raudonos taškus žemėlapyje.

Perkelti pele per norėdami pamatyti stoties vardą.

Tada spustelėkite, norėdami matyti oro stebėjimo ir prognozės.

Norėdami pakeisti žemėlapį: spustelėkite ant žalios mygtukų su juodo kryžiaus žemyn,; žalią mygtuką su brūkšneliu, jei norite nutolinti; arba žalių rodyklių gretimoms žemėlapius.


METAR-TAF: